Main page
METAR-TAF:

METAR-TAF

Airports :

Gibraltar, Gibraltar

Gibraltar International Airport

latitude: 36-09N, longitude: 005-21W, elevation: 5 m

Current weather observation

The report was made 25 minutes ago, at 06:50 UTC
Wind 2 kt from the East/Northeast
Temperature 16°C
Humidity 88%
Pressure 1013 hPa
Visibility: 4000 m
Few clouds at a height of 700 ft
Broken clouds at a height of 25000 ft
haze

METAR: LXGB 230650Z 07002KT 4000 HZ FEW007 BKN250 16/14 Q1013 BECMG 8000

Time: 09:15 (07:15 UTC)

Forecast

The report was made 15 minutes ago, at 07:00 UTC
Forecast valid from 23 at 06 UTC to 23 at 15 UTC
Wind 5 kt from variable directions
Visibility: 4000 m
Few clouds at a height of 800 ft
haze
Becoming
from 23 at 07 UTC to 23 at 10 UTC
Visibility: 8000 m

TAF: LXGB 230700Z 2306/2315 VRB05KT 4000 HZ FEW008 BECMG 2307/2310 8000

Weather observations and forecasts of more than 4000 airports (METAR and TAF reports).

The available stations are represented by yellow and red dots on the map.

Hover mouse over dot to see the name of the station.

Then click to see weather observations and forecasts.

To change the map : click on the green buttons with a black cross to zoom in, on the green button with a dash to zoom out, or on the green arrows for adjacent maps.


METAR-TAF: